Phu Bai Airport
VVPB : now visible

Airfield :











YOU CAN JOIN US ON...

 
LOGIN :

Register | Disclaimer

   EN    FR    IT 

 









Legend :    VFR   Marginal VFR   IFR   Intensive IFR   Very Intensive IFR
Visi :
Ceiling :
>= 8 km
>= 3000ft
5 to 8 km
1000 to 3000 ft
1500m to 5 km
500 to 1000 ft
800 to 1500m
200 to 500 ft
< 800m
< 200 ft
Symbols :   Thunderstorms  Fog  Heavy snow  Heavy precipitations  Wind > 20 kt







- Airport Elevation : 48 ft
- IATA code : HUI


VVPB - Phu Bai

CURRENT METAR :
  • 261530Z VRB02KT 9999 FEW020 BKN070 28/25 Q1009 NOSIG

EXPIRED METARs :
  • 261500Z VRB02KT 9999 FEW020 BKN070 28/25 Q1009 NOSIG
  • 261430Z VRB02KT 9999 FEW020 BKN070 28/25 Q1009 NOSIG
  • 261400Z VRB02KT 9999 FEW020 BKN070 28/25 Q1009 NOSIG
  • 261330Z VRB02KT 9999 FEW020 BKN070 28/25 Q1008 NOSIG
  • 261300Z VRB02KT 9999 FEW020 SCT070 28/25 Q1007 NOSIG

TAF TAF VVPB
Valid from the 26 at 12:00 until the 27 at 12:00 UTC


261100Z 2612/2712 08008KT 9999 FEW015 SCT070
TEMPO 2708/2712 TS SCT013 FEW015CB SCT060
VVTS FIR / Asia



MET'MAP, your aeronautical weather chart ! - Copyright ORBIFLY December 2007 - Disclaimer

ORBIFLY MET'MAP TEAM :

Programming & Development : Alexandra Zaïnal
Concept & Development : Baudouin d'Aumeries
Co-Development & Prog : Marc-Olivier Méhu
Technical & hardware support : Manuel Goepfert

Contact : metmap@orbifly.com




SOURCES & CREDITS :

   NOAA       Earth
Advisory